Time;durP1;ratioP1;P1;durP2;ratioP2;P2;SDS_P1;SDS_P2;PMS_P1;PMS_P2;Temp;Humidity;BMP_temperature;BMP_pressure;BME280_temperature;BME280_humidity;BME280_pressure;Samples;Min_cycle;Max_cycle;Signal;HPM_P1;HPM_P2
2021/09/23 00:00:06;;;;;;;27.43;24.73;;;15.30;99.90;;;;;;6004200;23;20530;-70
2021/09/23 00:05:17;;;;;;;26.33;23.83;;;15.20;99.90;;;;;;6007341;23;20498;-71
2021/09/23 00:07:44;;;;;;;28.07;25.23;;;15.20;99.90;;;;;;5995755;23;20696;-70
2021/09/23 00:10:13;;;;;;;26.67;23.97;;;15.10;99.90;;;;;;5973494;23;20716;-70
2021/09/23 00:12:39;;;;;;;26.37;23.47;;;15.10;99.90;;;;;;6000188;23;21140;-70
2021/09/23 00:15:08;;;;;;;29.50;26.30;;;15.10;99.90;;;;;;5999601;23;20538;-70
2021/09/23 00:17:33;;;;;;;26.50;23.80;;;15.10;99.90;;;;;;5999377;23;20669;-70
2021/09/23 00:19:59;;;;;;;29.00;26.10;;;15.10;99.90;;;;;;6001563;23;20553;-70
2021/09/23 00:22:25;;;;;;;26.40;23.60;;;15.00;99.90;;;;;;5998606;23;20245;-70
2021/09/23 00:24:50;;;;;;;28.60;25.70;;;15.00;99.90;;;;;;6000050;23;20157;-70
2021/09/23 00:27:18;;;;;;;29.47;26.20;;;15.00;99.90;;;;;;5997633;23;20220;-71
2021/09/23 00:29:43;;;;;;;29.37;26.20;;;15.00;99.90;;;;;;5975402;23;20180;-71
2021/09/23 00:32:09;;;;;;;27.50;24.70;;;15.00;99.90;;;;;;6000920;23;20538;-71
2021/09/23 00:34:37;;;;;;;29.80;26.73;;;15.00;99.90;;;;;;5999665;23;20984;-71
2021/09/23 00:37:04;;;;;;;31.83;28.73;;;15.00;99.90;;;;;;5999744;23;20216;-71
2021/09/23 00:39:32;;;;;;;29.60;26.60;;;14.90;99.90;;;;;;6000906;23;20685;-71
2021/09/23 00:42:03;;;;;;;29.80;26.70;;;14.90;99.90;;;;;;6002949;23;20541;-73
2021/09/23 00:44:29;;;;;;;32.37;28.53;;;14.90;99.90;;;;;;6001963;23;21200;-71
2021/09/23 00:46:54;;;;;;;31.80;28.40;;;14.90;99.90;;;;;;6001044;23;20601;-71
2021/09/23 00:49:20;;;;;;;31.67;28.57;;;14.90;99.90;;;;;;6001617;23;20197;-71
2021/09/23 00:51:52;;;;;;;32.07;28.50;;;14.90;99.90;;;;;;6001628;23;20240;-71
2021/09/23 00:54:18;;;;;;;32.10;28.80;;;14.80;99.90;;;;;;5975333;23;20232;-71
2021/09/23 00:56:46;;;;;;;33.77;28.57;;;14.80;99.90;;;;;;6001163;23;20970;-71
2021/09/23 00:59:11;;;;;;;32.13;28.80;;;14.80;99.90;;;;;;6002602;23;20192;-71
2021/09/23 01:01:40;;;;;;;31.50;28.37;;;14.80;99.90;;;;;;5977069;23;20573;-71
2021/09/23 01:04:08;;;;;;;30.80;27.70;;;14.80;99.90;;;;;;6002042;23;20164;-71
2021/09/23 01:06:33;;;;;;;32.63;29.23;;;14.80;99.90;;;;;;5974863;23;21143;-71
2021/09/23 01:08:59;;;;;;;33.90;30.30;;;14.70;99.90;;;;;;6000947;23;20542;-71
2021/09/23 01:11:30;;;;;;;33.00;29.63;;;14.70;99.90;;;;;;5977314;23;20157;-71
2021/09/23 01:13:55;;;;;;;32.40;29.10;;;14.70;99.90;;;;;;6000849;23;20228;-71
2021/09/23 01:16:24;;;;;;;31.43;28.20;;;14.70;99.90;;;;;;6000486;23;20625;-71
2021/09/23 01:18:49;;;;;;;30.67;27.57;;;14.60;99.90;;;;;;5978253;23;20264;-71
2021/09/23 01:21:15;;;;;;;30.80;27.60;;;14.60;99.90;;;;;;6002865;23;20636;-71
2021/09/23 01:23:43;;;;;;;33.47;29.87;;;14.60;99.90;;;;;;5975673;23;20165;-71
2021/09/23 01:26:18;;;;;;;34.57;30.70;;;14.60;99.90;;;;;;6000639;23;20197;-71
2021/09/23 01:28:52;;;;;;;34.90;30.97;;;14.60;99.90;;;;;;6000453;23;20509;-71
2021/09/23 01:31:17;;;;;;;33.30;29.80;;;14.50;99.90;;;;;;6001619;23;20537;-71
2021/09/23 01:33:46;;;;;;;37.20;30.13;;;14.50;99.90;;;;;;6001838;23;20873;-71
2021/09/23 01:36:11;;;;;;;34.53;30.93;;;14.60;99.90;;;;;;6000368;23;20208;-71
2021/09/23 01:38:37;;;;;;;35.47;31.77;;;14.50;99.90;;;;;;6002300;23;20597;-71
2021/09/23 01:41:02;;;;;;;35.03;31.10;;;14.50;99.90;;;;;;6023273;23;20181;-71
2021/09/23 01:43:28;;;;;;;35.00;30.60;;;14.50;99.90;;;;;;6022815;23;20168;-71
2021/09/23 01:45:53;;;;;;;36.60;31.70;;;14.50;99.90;;;;;;6002720;23;20243;-70
2021/09/23 01:48:21;;;;;;;34.93;31.17;;;14.50;99.90;;;;;;5977719;23;20192;-74
2021/09/23 01:50:47;;;;;;;33.83;30.17;;;14.50;99.90;;;;;;6002391;23;20260;-71
2021/09/23 01:53:12;;;;;;;36.67;31.90;;;14.40;99.90;;;;;;6000798;23;20678;-72
2021/09/23 01:55:38;;;;;;;37.13;31.20;;;14.40;99.90;;;;;;5999735;23;20213;-71
2021/09/23 01:58:04;;;;;;;34.70;31.00;;;14.40;99.90;;;;;;6001400;23;20185;-71
2021/09/23 02:00:29;;;;;;;35.50;31.70;;;14.40;99.90;;;;;;6000804;23;20165;-71
2021/09/23 02:02:57;;;;;;;35.30;31.40;;;14.40;99.90;;;;;;6002071;23;20560;-71
2021/09/23 02:05:22;;;;;;;37.37;30.90;;;14.40;99.90;;;;;;6002195;23;20161;-71
2021/09/23 02:07:48;;;;;;;34.17;29.63;;;14.30;99.90;;;;;;6001209;23;20616;-70
2021/09/23 02:10:14;;;;;;;36.90;32.90;;;14.30;99.90;;;;;;6001769;23;20177;-71
2021/09/23 02:12:40;;;;;;;41.03;33.10;;;14.30;99.90;;;;;;6001719;23;20169;-71
2021/09/23 02:15:07;;;;;;;36.80;32.33;;;14.30;99.90;;;;;;6001975;23;20561;-71
2021/09/23 02:17:41;;;;;;;39.33;32.10;;;14.30;99.90;;;;;;6000603;23;20679;-70
2021/09/23 02:20:07;;;;;;;35.93;30.40;;;14.40;99.90;;;;;;5975578;23;21090;-71
2021/09/23 02:22:32;;;;;;;36.53;32.53;;;14.40;99.90;;;;;;5977887;23;20899;-71
2021/09/23 02:25:00;;;;;;;35.33;31.40;;;14.30;99.90;;;;;;5973450;23;20618;-71
2021/09/23 02:27:29;;;;;;;36.53;32.23;;;14.30;99.90;;;;;;5996725;23;20209;-71
2021/09/23 02:29:57;;;;;;;33.27;29.67;;;14.30;99.90;;;;;;6000302;23;20531;-71
2021/09/23 02:32:25;;;;;;;38.67;33.37;;;14.30;99.90;;;;;;5999870;23;20553;-71
2021/09/23 02:34:50;;;;;;;35.87;31.30;;;14.30;99.90;;;;;;5999491;23;21500;-71
2021/09/23 02:37:16;;;;;;;38.97;32.67;;;14.30;99.90;;;;;;5974506;23;20598;-70
2021/09/23 02:39:43;;;;;;;34.77;31.03;;;14.30;99.90;;;;;;6000564;23;20208;-70
2021/09/23 02:42:14;;;;;;;34.87;30.53;;;14.30;99.90;;;;;;6000128;23;20240;-71
2021/09/23 02:44:40;;;;;;;40.20;32.23;;;14.30;99.90;;;;;;6000258;23;20881;-71
2021/09/23 02:47:22;;;;;;;37.50;32.30;;;14.30;99.90;;;;;;5972680;23;20635;-71
2021/09/23 02:49:49;;;;;;;37.97;31.90;;;14.30;99.90;;;;;;5975196;23;20169;-71
2021/09/23 02:52:16;;;;;;;37.63;31.57;;;14.30;99.90;;;;;;5999325;23;20603;-71
2021/09/23 02:54:41;;;;;;;37.73;31.97;;;14.30;99.90;;;;;;6000258;23;20545;-71
2021/09/23 02:57:07;;;;;;;36.87;31.70;;;14.20;99.90;;;;;;6000261;23;20605;-71
2021/09/23 02:59:33;;;;;;;38.73;32.27;;;14.10;99.90;;;;;;6001739;23;20188;-71
2021/09/23 03:01:58;;;;;;;40.27;32.90;;;14.20;99.90;;;;;;6000261;23;20221;-71
2021/09/23 03:04:26;;;;;;;37.87;31.43;;;14.10;99.90;;;;;;6000891;23;20667;-71
2021/09/23 03:06:52;;;;;;;37.23;31.10;;;14.10;99.90;;;;;;5999626;23;20220;-71
2021/09/23 03:09:19;;;;;;;38.40;31.00;;;14.10;99.90;;;;;;6001818;23;20534;-71
2021/09/23 03:11:45;;;;;;;36.87;32.17;;;14.10;99.90;;;;;;5976479;23;20518;-71
2021/09/23 03:14:18;;;;;;;40.60;31.87;;;14.10;99.90;;;;;;6000863;23;20574;-71
2021/09/23 03:16:46;;;;;;;36.50;31.43;;;14.10;99.90;;;;;;6000665;23;20230;-71
2021/09/23 03:19:14;;;;;;;40.20;30.93;;;14.00;99.90;;;;;;5975435;23;20620;-71
2021/09/23 03:21:40;;;;;;;37.53;31.53;;;14.00;99.90;;;;;;5998723;23;20582;-71
2021/09/23 03:24:06;;;;;;;40.53;31.33;;;14.00;99.90;;;;;;6001873;23;20541;-71
2021/09/23 03:26:32;;;;;;;37.97;31.20;;;13.90;99.90;;;;;;5997662;23;20208;-71
2021/09/23 03:29:00;;;;;;;41.47;30.00;;;13.90;99.90;;;;;;6000537;23;20164;-71
2021/09/23 03:31:25;;;;;;;36.77;31.37;;;13.90;99.90;;;;;;5999244;23;20546;-71
2021/09/23 03:33:53;;;;;;;36.77;29.00;;;13.90;99.90;;;;;;5975079;23;21093;-71
2021/09/23 03:36:22;;;;;;;36.63;30.47;;;13.90;99.90;;;;;;5973289;23;20204;-71
2021/09/23 03:38:50;;;;;;;42.10;30.97;;;13.90;99.90;;;;;;6000301;23;20592;-71
2021/09/23 03:41:18;;;;;;;35.60;30.30;;;13.90;99.90;;;;;;6000205;23;20573;-70
2021/09/23 03:43:43;;;;;;;37.23;30.73;;;13.90;99.90;;;;;;6001016;23;20542;-71
2021/09/23 03:46:09;;;;;;;40.23;30.50;;;13.90;99.90;;;;;;5997718;23;20665;-71
2021/09/23 03:48:35;;;;;;;37.10;31.27;;;13.90;99.90;;;;;;5998883;23;20520;-71
2021/09/23 03:51:00;;;;;;;36.87;31.47;;;14.00;99.90;;;;;;6001244;23;20248;-71
2021/09/23 03:53:26;;;;;;;41.27;31.70;;;13.90;99.90;;;;;;6001826;23;20667;-71
2021/09/23 03:55:57;;;;;;;34.23;28.80;;;13.90;99.90;;;;;;6000338;23;20235;-71
2021/09/23 03:58:25;;;;;;;35.97;29.00;;;14.00;99.90;;;;;;6000983;23;20185;-71
2021/09/23 04:00:55;;;;;;;39.70;31.07;;;14.00;99.90;;;;;;5976455;23;20910;-71
2021/09/23 04:03:23;;;;;;;37.43;29.90;;;14.00;99.90;;;;;;6001169;23;20510;-71
2021/09/23 04:05:50;;;;;;;36.10;28.90;;;13.90;99.90;;;;;;5975484;23;20585;-72
2021/09/23 04:08:16;;;;;;;39.33;29.80;;;13.90;99.90;;;;;;6002215;23;20565;-71
2021/09/23 04:10:44;;;;;;;36.33;30.07;;;13.90;99.90;;;;;;6000786;23;20660;-72
2021/09/23 04:13:12;;;;;;;36.83;29.80;;;13.90;99.90;;;;;;6002254;23;20164;-71
2021/09/23 04:15:37;;;;;;;39.53;30.40;;;13.90;99.90;;;;;;6002411;23;20541;-71
2021/09/23 04:18:04;;;;;;;33.07;28.10;;;13.90;99.90;;;;;;6002900;23;20634;-71
2021/09/23 04:20:29;;;;;;;38.17;28.77;;;13.90;99.90;;;;;;6003151;23;20643;-71
2021/09/23 04:23:00;;;;;;;35.90;29.20;;;13.90;99.90;;;;;;6002453;23;20546;-72
2021/09/23 04:25:26;;;;;;;36.67;29.57;;;13.90;99.90;;;;;;6004381;23;20177;-70
2021/09/23 04:27:51;;;;;;;37.07;29.17;;;13.90;99.90;;;;;;6002250;23;20582;-71
2021/09/23 04:30:17;;;;;;;36.57;29.50;;;13.90;99.90;;;;;;6004017;23;20189;-74
2021/09/23 04:32:45;;;;;;;33.50;27.40;;;13.90;99.90;;;;;;5995208;23;20339;-71
2021/09/23 04:35:13;;;;;;;36.83;30.80;;;13.90;99.90;;;;;;6022275;23;20161;-71
2021/09/23 04:37:38;;;;;;;38.63;28.63;;;13.90;99.90;;;;;;6002267;23;20627;-71
2021/09/23 04:40:05;;;;;;;36.53;29.00;;;13.90;99.90;;;;;;6001484;23;20538;-71
2021/09/23 04:42:30;;;;;;;36.30;29.60;;;13.80;99.90;;;;;;6000369;23;20233;-71
2021/09/23 04:44:56;;;;;;;38.00;30.83;;;13.80;99.90;;;;;;6002511;23;20614;-70
2021/09/23 04:47:21;;;;;;;35.20;28.93;;;13.80;99.90;;;;;;5979091;23;20235;-71
2021/09/23 04:49:47;;;;;;;36.97;28.47;;;13.90;99.90;;;;;;6003962;23;20236;-71
2021/09/23 04:52:14;;;;;;;35.50;30.37;;;13.90;99.90;;;;;;5979104;23;20173;-71
2021/09/23 04:54:40;;;;;;;35.90;28.80;;;13.90;99.90;;;;;;6002917;23;20176;-71
2021/09/23 04:57:06;;;;;;;35.63;28.30;;;13.80;99.90;;;;;;5978102;23;20962;-71
2021/09/23 04:59:31;;;;;;;36.80;29.53;;;13.90;99.90;;;;;;5981028;23;20923;-71
2021/09/23 05:01:57;;;;;;;36.57;28.93;;;13.90;99.90;;;;;;6003506;23;20168;-71
2021/09/23 05:04:22;;;;;;;35.33;28.40;;;13.90;99.90;;;;;;5982396;23;20260;-71
2021/09/23 05:06:48;;;;;;;34.33;28.13;;;13.90;99.90;;;;;;5980532;23;20209;-71
2021/09/23 05:09:13;;;;;;;35.70;29.30;;;13.90;99.90;;;;;;6004555;23;20169;-71
2021/09/23 05:11:39;;;;;;;38.93;27.97;;;13.90;99.90;;;;;;5996539;23;20506;-71
2021/09/23 05:14:04;;;;;;;37.27;28.90;;;13.90;99.90;;;;;;5971896;23;20170;-70
2021/09/23 05:16:32;;;;;;;40.50;28.47;;;13.90;99.90;;;;;;5992525;23;20224;-71
2021/09/23 05:19:01;;;;;;;35.87;28.60;;;13.90;99.90;;;;;;6000353;23;20181;-71
2021/09/23 05:21:32;;;;;;;35.00;28.07;;;13.90;99.90;;;;;;6003775;23;20588;-71
2021/09/23 05:23:57;;;;;;;34.20;27.50;;;13.90;99.90;;;;;;6002686;23;20578;-68
2021/09/23 05:26:28;;;;;;;37.17;28.83;;;14.00;99.90;;;;;;6005756;23;20657;-71
2021/09/23 05:28:56;;;;;;;32.60;27.70;;;14.00;99.90;;;;;;5982867;23;20169;-71
2021/09/23 05:31:22;;;;;;;37.80;28.93;;;14.00;99.90;;;;;;6006948;23;20598;-71
2021/09/23 05:33:50;;;;;;;32.50;27.30;;;14.00;99.90;;;;;;6006416;23;20542;-71
2021/09/23 05:36:15;;;;;;;36.87;28.30;;;14.00;99.90;;;;;;6004942;23;20288;-71
2021/09/23 05:38:41;;;;;;;32.47;26.37;;;14.10;99.90;;;;;;6005764;23;20667;-71
2021/09/23 05:41:07;;;;;;;36.87;29.07;;;14.10;99.90;;;;;;6008544;23;20164;-71
2021/09/23 05:43:32;;;;;;;34.60;28.90;;;14.10;99.90;;;;;;6008558;23;20153;-71
2021/09/23 05:45:58;;;;;;;35.17;27.20;;;14.10;99.90;;;;;;6006645;23;20204;-71
2021/09/23 05:48:23;;;;;;;36.53;27.83;;;14.10;99.90;;;;;;6008865;23;20192;-71
2021/09/23 05:50:49;;;;;;;36.63;29.63;;;14.10;99.90;;;;;;6007531;23;20168;-71
2021/09/23 05:53:15;;;;;;;36.47;28.70;;;14.10;99.90;;;;;;6007562;23;20506;-71
2021/09/23 05:55:43;;;;;;;34.63;27.77;;;14.20;99.90;;;;;;6006903;23;20252;-71
2021/09/23 05:58:08;;;;;;;37.47;27.80;;;14.20;99.90;;;;;;6007668;23;20253;-71
2021/09/23 06:00:34;;;;;;;33.90;27.47;;;14.20;99.90;;;;;;6007230;23;21112;-71
2021/09/23 06:03:00;;;;;;;32.70;26.80;;;14.20;99.90;;;;;;5980125;23;20172;-71
2021/09/23 06:05:25;;;;;;;34.57;27.13;;;14.20;99.90;;;;;;6000353;23;20213;-71
2021/09/23 06:07:51;;;;;;;34.37;27.83;;;14.20;99.90;;;;;;6004888;23;20484;-71
2021/09/23 06:10:16;;;;;;;34.33;27.00;;;14.20;99.90;;;;;;6021790;23;20197;-72
2021/09/23 06:12:42;;;;;;;31.23;25.50;;;14.20;99.90;;;;;;6026613;23;20164;-72
2021/09/23 06:15:09;;;;;;;32.33;26.07;;;14.30;99.90;;;;;;6024416;23;20156;-71
2021/09/23 06:17:35;;;;;;;33.73;27.50;;;14.30;99.90;;;;;;6012628;23;20287;-71
2021/09/23 06:20:01;;;;;;;31.47;25.73;;;14.30;99.90;;;;;;6004511;23;20533;-71
2021/09/23 06:22:27;;;;;;;35.17;26.40;;;14.40;99.90;;;;;;6008754;23;20585;-71
2021/09/23 06:24:52;;;;;;;32.93;26.97;;;14.40;99.90;;;;;;5982552;23;21088;-71
2021/09/23 06:27:18;;;;;;;32.70;25.30;;;14.40;99.90;;;;;;6007047;23;20212;-71
2021/09/23 06:29:46;;;;;;;31.30;25.03;;;14.40;99.90;;;;;;6007794;23;20157;-70
2021/09/23 06:32:11;;;;;;;29.17;24.47;;;14.50;99.90;;;;;;5981943;23;20220;-71
2021/09/23 06:34:37;;;;;;;31.40;26.20;;;14.40;99.90;;;;;;6005385;23;20877;-71
2021/09/23 06:37:03;;;;;;;29.77;24.57;;;14.50;99.90;;;;;;5981270;23;20219;-71
2021/09/23 06:39:28;;;;;;;33.00;25.33;;;14.50;99.90;;;;;;6008599;23;20272;-71
2021/09/23 06:41:55;;;;;;;35.03;25.80;;;14.50;99.90;;;;;;6009242;23;20161;-71
2021/09/23 06:44:21;;;;;;;31.50;25.40;;;14.50;99.90;;;;;;6007479;23;20660;-71
2021/09/23 06:46:46;;;;;;;28.33;24.17;;;14.50;99.90;;;;;;5981767;23;20610;-71
2021/09/23 06:49:12;;;;;;;32.27;26.60;;;14.50;99.90;;;;;;6008488;23;20168;-71
2021/09/23 06:51:38;;;;;;;30.67;25.60;;;14.50;99.90;;;;;;6007322;23;20223;-71
2021/09/23 06:54:03;;;;;;;34.30;26.67;;;14.60;99.90;;;;;;6008003;23;20165;-71
2021/09/23 06:56:29;;;;;;;29.40;24.97;;;14.60;99.90;;;;;;6007413;23;20205;-71
2021/09/23 06:58:54;;;;;;;31.77;25.90;;;14.60;99.90;;;;;;5983629;23;20565;-71
2021/09/23 07:01:20;;;;;;;31.63;24.53;;;14.60;99.90;;;;;;6007761;23;20164;-71
2021/09/23 07:03:45;;;;;;;33.50;25.40;;;14.70;99.90;;;;;;6008498;23;20161;-71
2021/09/23 07:06:14;;;;;;;29.93;23.87;;;14.60;99.90;;;;;;6007668;23;20200;-71
2021/09/23 07:08:40;;;;;;;27.47;24.47;;;14.70;99.90;;;;;;6008221;23;20222;-71
2021/09/23 07:11:05;;;;;;;29.43;23.97;;;14.70;99.90;;;;;;6007151;23;20656;-71
2021/09/23 07:13:31;;;;;;;29.97;23.60;;;14.70;99.90;;;;;;5982287;23;20558;-71
2021/09/23 07:15:59;;;;;;;31.90;24.60;;;14.70;99.90;;;;;;6004461;23;20231;-71
2021/09/23 07:18:26;;;;;;;31.17;25.03;;;14.80;99.90;;;;;;6009995;23;20199;-71
2021/09/23 07:20:52;;;;;;;32.03;25.50;;;14.80;99.90;;;;;;5995029;23;20569;-71
2021/09/23 07:23:18;;;;;;;32.67;26.07;;;14.80;99.90;;;;;;6014418;23;20538;-72
2021/09/23 07:25:43;;;;;;;33.20;25.03;;;14.90;99.90;;;;;;6030880;23;20630;-71
2021/09/23 07:28:15;;;;;;;29.17;23.83;;;14.90;99.90;;;;;;6028576;23;20184;-71
2021/09/23 07:30:41;;;;;;;31.80;24.80;;;15.00;99.90;;;;;;6008961;23;20176;-71
2021/09/23 07:33:06;;;;;;;29.17;24.50;;;15.00;99.90;;;;;;6006714;23;21308;-71
2021/09/23 07:35:34;;;;;;;30.93;23.33;;;15.00;99.90;;;;;;6005431;23;21099;-71
2021/09/23 07:38:00;;;;;;;29.50;23.60;;;15.10;99.90;;;;;;6006799;23;20268;-71
2021/09/23 07:40:26;;;;;;;29.30;24.87;;;15.00;99.90;;;;;;6008221;23;20540;-71
2021/09/23 07:42:52;;;;;;;30.27;25.27;;;15.10;99.90;;;;;;6008282;23;20569;-71
2021/09/23 07:45:18;;;;;;;34.23;25.27;;;15.20;99.90;;;;;;5982819;23;20169;-71
2021/09/23 07:47:43;;;;;;;30.63;25.33;;;15.20;99.90;;;;;;6007448;23;20626;-71
2021/09/23 07:50:09;;;;;;;27.63;23.13;;;15.30;99.90;;;;;;6009406;23;20536;-71
2021/09/23 07:52:35;;;;;;;30.02;25.00;;;15.40;99.90;;;;;;5984046;23;20717;-71
2021/09/23 07:55:03;;;;;;;27.57;24.20;;;15.40;99.90;;;;;;6009840;23;20628;-71
2021/09/23 07:57:28;;;;;;;29.07;24.27;;;15.60;99.90;;;;;;6008997;23;20208;-70
2021/09/23 07:59:54;;;;;;;27.30;24.40;;;15.60;99.90;;;;;;5983654;23;20617;-70
2021/09/23 08:02:20;;;;;;;35.37;25.10;;;15.60;99.90;;;;;;5984137;23;20165;-71
2021/09/23 08:04:46;;;;;;;33.33;24.43;;;15.60;99.90;;;;;;5983252;23;20236;-71
2021/09/23 08:07:14;;;;;;;30.10;23.77;;;15.60;99.90;;;;;;6007853;23;20209;-71
2021/09/23 08:09:41;;;;;;;29.10;24.83;;;15.70;99.90;;;;;;6008216;23;20908;-71
2021/09/23 08:12:07;;;;;;;28.83;24.63;;;15.70;99.90;;;;;;6008911;23;20856;-70
2021/09/23 08:14:33;;;;;;;25.33;22.63;;;15.70;99.90;;;;;;6008902;23;20556;-70
2021/09/23 08:16:59;;;;;;;30.40;22.70;;;15.80;99.90;;;;;;6007727;23;20637;-70
2021/09/23 08:19:24;;;;;;;29.47;23.97;;;15.80;99.90;;;;;;6009296;23;21026;-71
2021/09/23 08:21:50;;;;;;;25.67;22.83;;;15.90;99.90;;;;;;5980832;23;20169;-71
2021/09/23 08:24:16;;;;;;;29.33;24.23;;;15.90;99.90;;;;;;5984303;23;20612;-70
2021/09/23 08:26:41;;;;;;;29.07;24.57;;;15.90;99.90;;;;;;6007619;23;20204;-70
2021/09/23 08:29:07;;;;;;;29.23;22.67;;;15.90;99.90;;;;;;6008902;23;20172;-71
2021/09/23 08:31:32;;;;;;;26.70;23.60;;;15.90;99.90;;;;;;6009339;23;20201;-71
2021/09/23 08:33:58;;;;;;;26.17;22.10;;;15.90;99.90;;;;;;5984569;23;20631;-70
2021/09/23 08:36:23;;;;;;;28.27;23.53;;;16.00;99.90;;;;;;6006751;23;20557;-70
2021/09/23 08:38:50;;;;;;;26.77;22.50;;;16.00;99.90;;;;;;6008841;23;20181;-70
2021/09/23 08:41:16;;;;;;;28.53;22.60;;;16.00;99.90;;;;;;6009413;23;20161;-71
2021/09/23 08:43:42;;;;;;;28.77;22.80;;;16.00;99.90;;;;;;6008300;23;21102;-70
2021/09/23 08:46:08;;;;;;;25.77;22.20;;;16.00;99.90;;;;;;6007887;23;20596;-71
2021/09/23 08:48:34;;;;;;;25.97;21.70;;;16.00;99.90;;;;;;6008913;23;20578;-70
2021/09/23 08:51:02;;;;;;;28.23;22.33;;;16.00;99.90;;;;;;6008485;23;20623;-71
2021/09/23 08:53:28;;;;;;;27.47;22.70;;;16.00;99.90;;;;;;6007382;23;20546;-71
2021/09/23 08:55:54;;;;;;;27.93;23.20;;;16.00;99.90;;;;;;5983230;23;20590;-71
2021/09/23 08:58:20;;;;;;;31.47;22.57;;;16.00;99.90;;;;;;6009598;23;20607;-71
2021/09/23 09:01:00;;;;;;;29.40;23.13;;;16.10;99.90;;;;;;5983988;23;20615;-71
2021/09/23 09:03:27;;;;;;;27.30;22.10;;;16.10;99.90;;;;;;6009469;23;20557;-71
2021/09/23 09:05:54;;;;;;;31.23;23.10;;;16.10;99.90;;;;;;6008328;23;20593;-71
2021/09/23 09:08:23;;;;;;;29.40;22.40;;;16.10;99.90;;;;;;5983572;23;21127;-71
2021/09/23 09:10:48;;;;;;;25.17;21.10;;;16.10;99.90;;;;;;6008190;23;20699;-71
2021/09/23 09:13:14;;;;;;;27.37;22.27;;;16.20;99.90;;;;;;6008408;23;20546;-71
2021/09/23 09:15:42;;;;;;;28.13;22.13;;;16.20;99.90;;;;;;6008102;23;20220;-71
2021/09/23 09:18:19;;;;;;;26.23;21.10;;;16.20;99.90;;;;;;6007223;23;20216;-71
2021/09/23 09:20:59;;;;;;;26.37;20.73;;;16.20;99.90;;;;;;6008392;23;20548;-71
2021/09/23 09:23:30;;;;;;;26.47;21.50;;;16.20;99.90;;;;;;6007266;23;20499;-71
2021/09/23 09:25:55;;;;;;;30.07;22.50;;;16.30;99.90;;;;;;6006152;23;20652;-71
2021/09/23 09:28:21;;;;;;;24.60;20.47;;;16.30;99.90;;;;;;6008367;23;21147;-71
2021/09/23 09:30:58;;;;;;;22.20;19.53;;;16.30;99.90;;;;;;5983330;23;20169;-71
2021/09/23 09:33:41;;;;;;;23.00;20.10;;;16.40;99.90;;;;;;6008494;23;20506;-71
2021/09/23 09:36:23;;;;;;;22.60;19.33;;;16.40;99.90;;;;;;5980689;23;20596;-71
2021/09/23 09:38:50;;;;;;;22.67;19.40;;;16.50;99.90;;;;;;5982438;23;20641;-71
2021/09/23 09:41:16;;;;;;;22.53;19.50;;;16.60;99.90;;;;;;6008221;23;20670;-71
2021/09/23 09:43:45;;;;;;;23.47;18.70;;;16.60;99.90;;;;;;6007218;23;20968;-71
2021/09/23 09:46:24;;;;;;;22.27;18.60;;;16.50;99.90;;;;;;6006727;23;20276;-71
2021/09/23 09:48:52;;;;;;;22.23;17.77;;;16.50;99.90;;;;;;5982149;23;20906;-71
2021/09/23 09:51:22;;;;;;;20.67;17.20;;;16.60;99.90;;;;;;6008018;23;20553;-71
2021/09/23 09:53:58;;;;;;;20.80;17.00;;;16.60;99.90;;;;;;6007787;23;20545;-71
2021/09/23 09:56:24;;;;;;;21.60;16.80;;;16.70;99.90;;;;;;6006439;23;20601;-71
2021/09/23 09:59:10;;;;;;;20.00;15.90;;;16.70;99.90;;;;;;6007873;23;20597;-71
2021/09/23 10:01:36;;;;;;;17.27;15.23;;;16.80;99.90;;;;;;6008287;23;20213;-71
2021/09/23 10:04:01;;;;;;;16.53;14.80;;;16.90;99.90;;;;;;6007163;23;20577;-71
2021/09/23 10:06:28;;;;;;;18.33;14.47;;;16.90;99.90;;;;;;6006695;23;20585;-71
2021/09/23 10:08:55;;;;;;;18.43;14.80;;;17.00;99.90;;;;;;6008946;23;20181;-71
2021/09/23 10:11:21;;;;;;;17.23;14.40;;;17.10;99.90;;;;;;6009873;23;20641;-71
2021/09/23 10:13:48;;;;;;;17.47;14.27;;;17.20;99.90;;;;;;6011128;23;20625;-72
2021/09/23 10:16:15;;;;;;;16.23;14.30;;;17.30;99.90;;;;;;6026690;23;20615;-71
2021/09/23 10:18:43;;;;;;;16.87;14.70;;;17.40;99.90;;;;;;6031722;23;20602;-71
2021/09/23 10:21:09;;;;;;;15.63;12.40;;;17.30;99.90;;;;;;6009648;23;20549;-71
2021/09/23 10:23:40;;;;;;;16.50;14.73;;;17.40;99.90;;;;;;6008622;23;21116;-71
2021/09/23 10:26:08;;;;;;;17.07;13.87;;;17.40;99.90;;;;;;6005348;23;20598;-71
2021/09/23 10:28:35;;;;;;;16.87;14.90;;;17.50;99.90;;;;;;6007470;23;20577;-71
2021/09/23 10:31:02;;;;;;;17.90;14.70;;;17.40;99.90;;;;;;6008341;23;20578;-71
2021/09/23 10:33:28;;;;;;;16.20;14.00;;;17.40;99.90;;;;;;6007888;23;20541;-71
2021/09/23 10:35:53;;;;;;;15.13;13.53;;;17.40;99.90;;;;;;6007179;23;20593;-71
2021/09/23 10:38:19;;;;;;;16.63;14.80;;;17.40;99.90;;;;;;6015582;23;20227;-72
2021/09/23 10:40:46;;;;;;;17.53;15.27;;;17.40;99.90;;;;;;6012930;23;20157;-71
2021/09/23 10:43:17;;;;;;;15.03;13.43;;;17.40;99.90;;;;;;6007697;23;20669;-71
2021/09/23 10:45:43;;;;;;;16.80;13.73;;;17.50;99.90;;;;;;6006206;23;20596;-72
2021/09/23 10:48:10;;;;;;;16.17;14.30;;;17.50;99.90;;;;;;6005693;23;20569;-72
2021/09/23 10:50:38;;;;;;;19.50;15.03;;;17.50;99.90;;;;;;6006794;23;20538;-72
2021/09/23 10:53:06;;;;;;;19.43;14.07;;;17.50;99.90;;;;;;6005808;23;20554;-72
2021/09/23 10:55:35;;;;;;;17.13;15.03;;;17.50;99.90;;;;;;6004249;23;20546;-71
2021/09/23 10:58:02;;;;;;;14.93;13.37;;;17.50;99.90;;;;;;6007121;23;20633;-71
2021/09/23 11:00:33;;;;;;;16.10;13.27;;;17.50;99.90;;;;;;6006098;23;20585;-71
2021/09/23 11:03:03;;;;;;;15.73;13.80;;;17.50;99.90;;;;;;6004937;23;20578;-72
2021/09/23 11:05:30;;;;;;;15.57;14.00;;;17.50;99.90;;;;;;6005408;23;21076;-71
2021/09/23 11:07:59;;;;;;;18.03;14.20;;;17.50;99.90;;;;;;6006123;23;20927;-72
2021/09/23 11:10:25;;;;;;;16.53;13.23;;;17.50;99.90;;;;;;6009121;23;20592;-72
2021/09/23 11:12:56;;;;;;;14.57;13.07;;;17.40;99.90;;;;;;6012022;23;20538;-72
2021/09/23 11:15:26;;;;;;;14.33;12.90;;;17.30;99.90;;;;;;6014582;23;20877;-72
2021/09/23 11:17:53;;;;;;;12.90;11.67;;;17.40;99.90;;;;;;6005782;23;20580;-72
2021/09/23 11:20:30;;;;;;;15.83;12.30;;;17.40;99.90;;;;;;6006173;23;20574;-71
2021/09/23 11:23:02;;;;;;;14.17;12.63;;;17.40;99.90;;;;;;6006485;23;20507;-71
2021/09/23 11:25:31;;;;;;;13.53;11.03;;;17.30;99.90;;;;;;6003105;23;20868;-72
2021/09/23 11:27:58;;;;;;;12.30;10.83;;;17.30;99.90;;;;;;5980987;23;21100;-70
2021/09/23 11:30:27;;;;;;;12.60;11.20;;;17.30;99.90;;;;;;6003931;23;20546;-70
2021/09/23 11:33:00;;;;;;;11.60;10.53;;;17.30;99.90;;;;;;5979683;23;20582;-71
2021/09/23 11:35:28;;;;;;;12.40;10.50;;;17.30;99.90;;;;;;5978851;23;20577;-70
2021/09/23 11:37:56;;;;;;;11.63;9.87;;;17.40;99.90;;;;;;5979670;23;20705;-70
2021/09/23 11:40:27;;;;;;;14.80;9.30;;;17.40;99.90;;;;;;6003554;23;20666;-71
2021/09/23 11:42:53;;;;;;;10.87;9.20;;;17.40;99.90;;;;;;5980033;23;21096;-71
2021/09/23 11:45:22;;;;;;;10.70;8.83;;;17.40;99.90;;;;;;5978875;23;20622;-70
2021/09/23 11:47:56;;;;;;;10.00;9.00;;;17.50;99.90;;;;;;5979317;23;20192;-71
2021/09/23 11:50:35;;;;;;;12.00;8.87;;;17.50;99.90;;;;;;6005057;23;20542;-70
2021/09/23 11:53:05;;;;;;;13.07;8.60;;;17.50;99.90;;;;;;5980064;23;20792;-71
2021/09/23 11:55:32;;;;;;;10.10;9.10;;;17.50;99.90;;;;;;5978006;23;20577;-70
2021/09/23 11:58:03;;;;;;;10.80;7.97;;;17.40;99.90;;;;;;6004386;23;20577;-71
2021/09/23 12:00:37;;;;;;;9.30;8.30;;;17.40;99.90;;;;;;6004367;23;20538;-71
2021/09/23 12:03:03;;;;;;;9.50;8.50;;;17.30;99.90;;;;;;6004211;23;20518;-70
2021/09/23 12:05:31;;;;;;;9.70;8.73;;;17.20;99.90;;;;;;5979078;23;20580;-72
2021/09/23 12:08:04;;;;;;;12.50;9.00;;;17.30;99.90;;;;;;6005111;23;20716;-71
2021/09/23 12:10:30;;;;;;;9.10;7.90;;;17.30;99.90;;;;;;6004557;23;20592;-72
2021/09/23 12:12:58;;;;;;;9.53;8.10;;;17.40;99.90;;;;;;6004680;23;20874;-70
2021/09/23 12:15:24;;;;;;;9.87;8.07;;;17.40;99.90;;;;;;6000589;23;20161;-70
2021/09/23 12:17:55;;;;;;;9.10;7.50;;;17.50;99.90;;;;;;6003481;23;21195;-71
2021/09/23 12:20:20;;;;;;;8.30;7.40;;;17.40;99.90;;;;;;6005508;23;20867;-69
2021/09/23 12:22:46;;;;;;;7.17;6.37;;;17.40;99.90;;;;;;6003566;23;20565;-70
2021/09/23 12:25:16;;;;;;;8.47;7.50;;;17.50;99.90;;;;;;6002162;23;20189;-71
2021/09/23 12:27:43;;;;;;;9.43;8.03;;;17.60;99.90;;;;;;6000523;23;20213;-71
2021/09/23 12:30:09;;;;;;;7.73;7.00;;;17.60;99.90;;;;;;6004069;23;20542;-71